createdAt,value
2017-06-11T00:00:57.478Z,2.07
2017-06-11T00:03:25.002Z,1.80
2017-06-11T00:05:52.550Z,2.33
2017-06-11T00:08:20.081Z,1.70
2017-06-11T00:10:47.618Z,1.63
2017-06-11T00:13:15.150Z,1.83
2017-06-11T00:15:42.691Z,1.60
2017-06-11T00:18:10.215Z,1.90
2017-06-11T00:20:37.771Z,1.30
2017-06-11T00:23:05.295Z,1.83
2017-06-11T00:25:32.824Z,2.13
2017-06-11T00:28:00.372Z,2.60
2017-06-11T00:30:28.663Z,2.83
2017-06-11T00:32:56.207Z,3.00
2017-06-11T00:35:24.501Z,2.20
2017-06-11T00:37:52.050Z,1.73
2017-06-11T00:40:19.570Z,1.70
2017-06-11T00:42:47.115Z,1.40
2017-06-11T00:45:14.635Z,1.50
2017-06-11T00:47:42.162Z,2.03
2017-06-11T00:50:09.707Z,1.60
2017-06-11T00:52:37.990Z,2.57
2017-06-11T00:55:06.305Z,2.00
2017-06-11T00:57:33.827Z,1.83
2017-06-11T01:00:01.382Z,1.97
2017-06-11T01:02:28.906Z,1.67
2017-06-11T01:04:56.463Z,1.73
2017-06-11T01:07:23.999Z,1.93
2017-06-11T01:09:51.527Z,1.60
2017-06-11T01:12:19.072Z,2.40
2017-06-11T01:14:46.595Z,2.03
2017-06-11T01:17:14.950Z,2.13
2017-06-11T01:19:42.474Z,1.90
2017-06-11T01:22:10.024Z,2.30
2017-06-11T01:24:37.546Z,1.80
2017-06-11T01:27:05.871Z,2.13
2017-06-11T01:29:33.395Z,2.27
2017-06-11T01:32:00.922Z,2.13
2017-06-11T01:34:28.476Z,2.07
2017-06-11T01:36:55.999Z,1.93
2017-06-11T01:39:23.540Z,2.03
2017-06-11T01:41:51.296Z,1.97
2017-06-11T01:44:18.843Z,1.80
2017-06-11T01:46:46.368Z,2.07
2017-06-11T01:49:13.910Z,2.50
2017-06-11T01:51:42.200Z,2.67
2017-06-11T01:54:09.748Z,2.30
2017-06-11T01:56:37.291Z,2.33
2017-06-11T01:59:04.819Z,2.60
2017-06-11T02:01:32.363Z,2.20
2017-06-11T02:03:59.935Z,1.43
2017-06-11T02:06:27.481Z,1.70
2017-06-11T02:08:55.012Z,1.80
2017-06-11T02:11:22.587Z,2.23
2017-06-11T02:13:50.113Z,1.90
2017-06-11T02:16:17.671Z,1.90
2017-06-11T02:18:45.194Z,1.93
2017-06-11T02:21:12.719Z,1.73
2017-06-11T02:23:40.269Z,2.47
2017-06-11T02:26:07.800Z,2.50
2017-06-11T02:28:35.339Z,2.40
2017-06-11T02:31:02.864Z,2.27
2017-06-11T02:33:30.414Z,1.93
2017-06-11T02:35:57.943Z,1.83
2017-06-11T02:38:26.251Z,1.80
2017-06-11T02:40:53.779Z,1.47
2017-06-11T02:43:21.327Z,2.67
2017-06-11T02:45:48.853Z,2.07
2017-06-11T02:48:16.388Z,2.80
2017-06-11T02:50:44.707Z,1.83
2017-06-11T02:53:12.231Z,1.73
2017-06-11T02:55:40.548Z,1.60
2017-06-11T02:58:08.071Z,1.73
2017-06-11T03:00:36.384Z,1.90
2017-06-11T03:03:03.900Z,2.17
2017-06-11T03:05:31.447Z,1.90
2017-06-11T03:07:58.975Z,1.87
2017-06-11T03:10:26.587Z,1.50
2017-06-11T03:12:54.120Z,2.17
2017-06-11T03:15:21.652Z,2.03
2017-06-11T03:17:49.959Z,2.23
2017-06-11T03:20:17.488Z,1.90
2017-06-11T03:22:45.799Z,2.57
2017-06-11T03:25:13.328Z,2.40
2017-06-11T03:27:41.641Z,1.80
2017-06-11T03:30:09.170Z,2.03
2017-06-11T03:32:37.492Z,1.70
2017-06-11T03:35:05.019Z,1.70
2017-06-11T03:37:32.547Z,1.10
2017-06-11T03:40:00.095Z,1.20
2017-06-11T03:42:27.617Z,1.23
2017-06-11T03:44:55.166Z,1.50
2017-06-11T03:47:22.691Z,1.60
2017-06-11T03:49:50.236Z,1.17
2017-06-11T03:52:17.758Z,1.80
2017-06-11T03:54:46.072Z,1.77
2017-06-11T03:57:13.603Z,1.67
2017-06-11T03:59:41.158Z,2.13
2017-06-11T04:02:08.676Z,1.37
2017-06-11T04:04:36.203Z,2.23
2017-06-11T04:07:03.744Z,1.40
2017-06-11T04:09:31.269Z,1.80
2017-06-11T04:11:58.811Z,1.70
2017-06-11T04:14:26.332Z,2.30
2017-06-11T04:16:53.876Z,2.30
2017-06-11T04:19:22.163Z,2.30
2017-06-11T04:21:49.706Z,1.97
2017-06-11T04:24:17.994Z,2.37
2017-06-11T04:26:45.552Z,2.10
2017-06-11T04:29:13.075Z,1.77
2017-06-11T04:31:40.600Z,2.13
2017-06-11T04:34:08.138Z,2.10
2017-06-11T04:36:36.426Z,3.17
2017-06-11T04:39:03.970Z,2.03
2017-06-11T04:41:32.263Z,3.00
2017-06-11T04:43:59.806Z,2.40
2017-06-11T04:46:27.332Z,1.80
2017-06-11T04:48:54.872Z,2.30
2017-06-11T04:51:22.395Z,2.60
2017-06-11T04:53:49.940Z,2.23
2017-06-11T04:56:17.484Z,2.20
2017-06-11T04:58:45.009Z,2.27
2017-06-11T05:01:12.555Z,2.53
2017-06-11T05:03:40.078Z,2.10
2017-06-11T05:06:08.388Z,2.07
2017-06-11T05:08:35.915Z,1.87
2017-06-11T05:11:04.235Z,1.80
2017-06-11T05:13:31.756Z,2.30
2017-06-11T05:15:59.284Z,2.60
2017-06-11T05:18:26.822Z,2.00
2017-06-11T05:20:54.346Z,2.23
2017-06-11T05:23:21.894Z,2.60
2017-06-11T05:25:49.426Z,2.30
2017-06-11T05:28:17.742Z,2.00
2017-06-11T05:30:45.280Z,2.47
2017-06-11T05:33:12.839Z,2.70
2017-06-11T05:35:40.365Z,2.10
2017-06-11T05:38:07.891Z,2.17
2017-06-11T05:40:35.437Z,1.77
2017-06-11T05:43:02.959Z,2.50
2017-06-11T05:45:30.502Z,2.83
2017-06-11T05:47:58.026Z,2.23
2017-06-11T05:50:25.571Z,2.33
2017-06-11T05:52:53.099Z,2.20
2017-06-11T05:55:20.643Z,2.67
2017-06-11T05:57:48.171Z,2.33
2017-06-11T06:00:15.720Z,2.23
2017-06-11T06:02:44.023Z,2.40
2017-06-11T06:05:11.552Z,2.70
2017-06-11T06:07:39.091Z,2.07
2017-06-11T06:10:06.614Z,2.33
2017-06-11T06:12:34.158Z,1.70
2017-06-11T06:15:01.679Z,2.93
2017-06-11T06:17:29.234Z,2.50
2017-06-11T06:19:57.527Z,1.87
2017-06-11T06:22:25.079Z,2.67
2017-06-11T06:24:52.600Z,1.87
2017-06-11T06:27:20.134Z,2.43
2017-06-11T06:29:48.454Z,2.97
2017-06-11T06:32:15.987Z,2.23
2017-06-11T06:34:43.526Z,2.57
2017-06-11T06:37:11.052Z,2.33
2017-06-11T06:39:38.604Z,2.47
2017-06-11T06:42:06.132Z,2.40
2017-06-11T06:44:33.655Z,2.53
2017-06-11T06:47:01.194Z,2.00
2017-06-11T06:49:28.720Z,2.50
2017-06-11T06:51:56.260Z,2.33
2017-06-11T06:54:23.791Z,2.80
2017-06-11T06:56:51.330Z,1.90
2017-06-11T06:59:19.618Z,2.73
2017-06-11T07:01:47.160Z,2.20
2017-06-11T07:04:14.690Z,2.80
2017-06-11T07:06:42.238Z,2.60
2017-06-11T07:09:09.778Z,2.50
2017-06-11T07:11:37.326Z,2.33
2017-06-11T07:14:04.875Z,2.10
2017-06-11T07:16:33.163Z,2.30
2017-06-11T07:19:00.703Z,2.00
2017-06-11T07:21:28.230Z,2.20
2017-06-11T07:23:56.541Z,2.43
2017-06-11T07:26:24.067Z,2.00
2017-06-11T07:28:51.615Z,2.10
2017-06-11T07:31:19.138Z,2.60
2017-06-11T07:33:46.695Z,1.70
2017-06-11T07:36:14.230Z,2.13
2017-06-11T07:38:41.754Z,2.20
2017-06-11T07:41:09.302Z,1.60
2017-06-11T07:43:36.830Z,2.53
2017-06-11T07:46:04.380Z,1.70
2017-06-11T07:48:31.910Z,1.93
2017-06-11T07:50:59.472Z,1.90
2017-06-11T07:53:26.999Z,2.40
2017-06-11T07:55:55.283Z,2.67
2017-06-11T07:58:22.830Z,2.10
2017-06-11T08:00:51.120Z,1.83
2017-06-11T08:03:18.673Z,1.90
2017-06-11T08:05:46.194Z,2.10
2017-06-11T08:08:13.735Z,2.17
2017-06-11T08:10:41.259Z,2.13
2017-06-11T08:13:08.798Z,2.20
2017-06-11T08:15:36.324Z,1.70
2017-06-11T08:18:03.890Z,1.67
2017-06-11T08:20:31.418Z,2.00
2017-06-11T08:22:58.939Z,2.60
2017-06-11T08:25:26.483Z,1.70
2017-06-11T08:27:54.772Z,2.17
2017-06-11T08:30:22.316Z,2.63
2017-06-11T08:32:49.840Z,2.50
2017-06-11T08:35:18.147Z,2.20
2017-06-11T08:37:45.666Z,1.70
2017-06-11T08:40:13.975Z,1.83
2017-06-11T08:42:41.502Z,1.87
2017-06-11T08:45:09.821Z,1.50
2017-06-11T08:47:37.338Z,1.53
2017-06-11T08:50:04.855Z,1.77
2017-06-11T08:52:32.401Z,1.50
2017-06-11T08:54:59.933Z,1.27
2017-06-11T08:57:27.476Z,1.90
2017-06-11T08:59:54.999Z,2.30
2017-06-11T09:02:22.545Z,1.70
2017-06-11T09:04:50.080Z,1.93
2017-06-11T09:07:17.622Z,1.70
2017-06-11T09:09:45.144Z,1.77
2017-06-11T09:12:12.698Z,1.90
2017-06-11T09:14:40.215Z,1.83
2017-06-11T09:17:07.743Z,2.40
2017-06-11T09:19:35.291Z,2.00
2017-06-11T09:22:02.815Z,2.57
2017-06-11T09:24:31.122Z,1.40
2017-06-11T09:26:59.413Z,1.77
2017-06-11T09:29:26.954Z,1.47
2017-06-11T09:31:54.474Z,1.70
2017-06-11T09:34:22.026Z,1.67
2017-06-11T09:36:49.548Z,1.90
2017-06-11T09:39:17.070Z,2.00
2017-06-11T09:41:44.626Z,1.60
2017-06-11T09:44:12.149Z,1.63
2017-06-11T09:46:40.473Z,1.20
2017-06-11T09:49:07.991Z,2.10
2017-06-11T09:51:35.534Z,1.70
2017-06-11T09:54:03.060Z,1.20
2017-06-11T09:56:30.597Z,1.60
2017-06-11T09:58:58.121Z,1.37
2017-06-11T10:01:25.662Z,1.57
2017-06-11T10:03:53.183Z,1.60
2017-06-11T10:06:20.731Z,1.93
2017-06-11T10:08:49.027Z,1.97
2017-06-11T10:11:16.552Z,1.40
2017-06-11T10:13:44.863Z,1.57
2017-06-11T10:16:12.387Z,2.00
2017-06-11T10:18:40.699Z,2.50
2017-06-11T10:21:08.219Z,2.50
2017-06-11T10:23:35.766Z,1.83
2017-06-11T10:26:03.290Z,1.70
2017-06-11T10:28:30.857Z,1.77
2017-06-11T10:30:58.384Z,1.80
2017-06-11T10:33:25.908Z,1.80
2017-06-11T10:35:53.451Z,2.00
2017-06-11T10:38:20.977Z,1.90
2017-06-11T10:40:48.521Z,1.70
2017-06-11T10:43:16.051Z,1.70
2017-06-11T10:45:43.597Z,1.57
2017-06-11T10:48:11.117Z,2.33
2017-06-11T10:50:38.663Z,2.20
2017-06-11T10:53:06.949Z,2.00
2017-06-11T10:55:34.508Z,1.50
2017-06-11T10:58:02.036Z,1.73
2017-06-11T11:00:29.554Z,1.53
2017-06-11T11:02:57.094Z,2.90
2017-06-11T11:05:24.614Z,2.10
2017-06-11T11:07:52.247Z,1.57
2017-06-11T11:10:19.854Z,1.90
2017-06-11T11:12:47.501Z,1.97
2017-06-11T11:15:15.806Z,1.40
2017-06-11T11:17:43.343Z,2.53
2017-06-11T11:20:10.863Z,2.00
2017-06-11T11:22:38.420Z,1.57
2017-06-11T11:25:05.947Z,1.77
2017-06-11T11:27:33.472Z,2.30
2017-06-11T11:30:01.015Z,1.70
2017-06-11T11:32:28.534Z,1.87
2017-06-11T11:34:56.078Z,1.80
2017-06-11T11:37:23.599Z,1.83
2017-06-11T11:39:51.138Z,1.53
2017-06-11T11:42:19.430Z,1.70
2017-06-11T11:44:46.970Z,1.57
2017-06-11T11:47:14.490Z,1.70
2017-06-11T11:49:42.806Z,1.47
2017-06-11T11:52:10.327Z,1.80
2017-06-11T11:54:37.851Z,1.57
2017-06-11T11:57:05.389Z,1.80
2017-06-11T11:59:33.682Z,1.83
2017-06-11T12:02:01.218Z,1.40
2017-06-11T12:04:29.515Z,1.70
2017-06-11T12:06:57.054Z,1.77
2017-06-11T12:09:24.575Z,1.60
2017-06-11T12:11:52.729Z,1.80
2017-06-11T12:14:20.325Z,2.57
2017-06-11T12:16:47.959Z,1.60
2017-06-11T12:19:16.246Z,1.87
2017-06-11T12:21:43.774Z,1.67
2017-06-11T12:24:11.321Z,1.53
2017-06-11T12:26:38.846Z,1.70
2017-06-11T12:29:06.387Z,1.77
2017-06-11T12:31:33.906Z,2.00
2017-06-11T12:34:01.451Z,1.50
2017-06-11T12:36:28.976Z,1.30
2017-06-11T12:38:56.518Z,1.57
2017-06-11T12:41:24.045Z,1.57
2017-06-11T12:43:51.601Z,1.60
2017-06-11T12:46:19.123Z,1.40
2017-06-11T12:48:46.649Z,1.67
2017-06-11T12:51:14.195Z,1.97
2017-06-11T12:53:42.486Z,1.77
2017-06-11T12:56:10.018Z,1.20
2017-06-11T12:58:37.541Z,1.40
2017-06-11T13:01:05.110Z,1.40
2017-06-11T13:03:33.398Z,1.10
2017-06-11T13:06:00.949Z,1.97
2017-06-11T13:08:29.234Z,1.40
2017-06-11T13:10:57.528Z,1.20
2017-06-11T13:13:25.836Z,1.83
2017-06-11T13:15:53.354Z,1.50
2017-06-11T13:18:20.899Z,1.73
2017-06-11T13:20:48.429Z,2.10
2017-06-11T13:23:15.966Z,1.80
2017-06-11T13:25:43.487Z,2.07
2017-06-11T13:28:11.046Z,2.00
2017-06-11T13:30:38.572Z,1.77
2017-06-11T13:33:06.095Z,1.40
2017-06-11T13:35:33.637Z,1.83
2017-06-11T13:38:01.157Z,1.40
2017-06-11T13:40:28.699Z,1.40
2017-06-11T13:42:56.225Z,1.40
2017-06-11T13:45:23.772Z,1.80
2017-06-11T13:47:51.294Z,1.33
2017-06-11T13:50:18.843Z,1.30
2017-06-11T13:52:46.371Z,1.47
2017-06-11T13:55:13.906Z,2.00
2017-06-11T13:57:42.196Z,1.43
2017-06-11T14:00:09.742Z,1.53
2017-06-11T14:02:37.275Z,1.67
2017-06-11T14:05:04.798Z,1.50
2017-06-11T14:07:33.102Z,1.90
2017-06-11T14:10:00.624Z,1.57
2017-06-11T14:12:28.167Z,2.50
2017-06-11T14:14:55.687Z,1.67
2017-06-11T14:17:23.997Z,2.03
2017-06-11T14:19:51.531Z,1.57
2017-06-11T14:22:19.835Z,1.60
2017-06-11T14:24:47.356Z,1.67
2017-06-11T14:27:14.915Z,1.70
2017-06-11T14:29:42.439Z,1.80
2017-06-11T14:32:09.961Z,1.60
2017-06-11T14:34:37.506Z,1.80
2017-06-11T14:37:05.785Z,1.50
2017-06-11T14:39:34.090Z,1.60
2017-06-11T14:42:01.614Z,1.57
2017-06-11T14:44:29.921Z,1.50
2017-06-11T14:46:57.455Z,1.70
2017-06-11T14:49:25.769Z,1.50
2017-06-11T14:51:53.291Z,1.70
2017-06-11T14:54:21.617Z,1.57
2017-06-11T14:56:49.139Z,1.47
2017-06-11T14:59:17.425Z,1.70
2017-06-11T15:01:44.976Z,2.10
2017-06-11T15:04:12.496Z,1.60
2017-06-11T15:06:40.034Z,1.17
2017-06-11T15:09:07.558Z,1.67
2017-06-11T15:11:35.107Z,1.83
2017-06-11T15:14:02.629Z,1.37
2017-06-11T15:16:30.934Z,1.40
2017-06-11T15:18:58.451Z,1.50
2017-06-11T15:21:26.775Z,1.60
2017-06-11T15:23:54.316Z,1.90
2017-06-11T15:26:21.836Z,1.40
2017-06-11T15:28:50.147Z,2.10
2017-06-11T15:31:17.670Z,1.90
2017-06-11T15:33:45.210Z,1.77
2017-06-11T15:36:12.740Z,1.30
2017-06-11T15:38:40.288Z,1.90
2017-06-11T15:41:07.807Z,2.17
2017-06-11T15:43:35.351Z,1.90
2017-06-11T15:46:02.874Z,4.33
2017-06-11T15:48:30.396Z,4.00
2017-06-11T15:50:57.936Z,1.63
2017-06-11T15:53:26.228Z,1.60
2017-06-11T15:55:53.771Z,1.63
2017-06-11T15:58:22.066Z,1.60
2017-06-11T16:00:49.606Z,1.90
2017-06-11T16:03:17.125Z,1.40
2017-06-11T16:05:44.678Z,1.70
2017-06-11T16:08:12.203Z,1.57
2017-06-11T16:10:39.727Z,1.70
2017-06-11T16:13:07.266Z,1.43
2017-06-11T16:15:34.791Z,1.63
2017-06-11T16:18:02.331Z,1.80
2017-06-11T16:20:29.850Z,1.63
2017-06-11T16:22:57.390Z,1.90
2017-06-11T16:25:24.915Z,2.00
2017-06-11T16:27:52.460Z,1.50
2017-06-11T16:30:19.988Z,2.10
2017-06-11T16:32:47.539Z,1.43
2017-06-11T16:35:15.066Z,1.50
2017-06-11T16:37:42.591Z,1.90
2017-06-11T16:40:10.142Z,2.10
2017-06-11T16:42:37.670Z,2.07
2017-06-11T16:45:05.207Z,1.50
2017-06-11T16:47:32.730Z,1.90
2017-06-11T16:50:00.274Z,1.63
2017-06-11T16:52:27.800Z,1.60
2017-06-11T16:54:55.356Z,1.80
2017-06-11T16:57:22.886Z,2.23
2017-06-11T16:59:50.416Z,2.97
2017-06-11T17:02:18.786Z,3.10
2017-06-11T17:04:47.074Z,1.50
2017-06-11T17:07:14.622Z,2.13
2017-06-11T17:09:42.146Z,1.90
2017-06-11T17:12:09.686Z,2.43
2017-06-11T17:14:37.212Z,2.27
2017-06-11T17:17:04.776Z,2.10
2017-06-11T17:19:33.079Z,1.70
2017-06-11T17:22:00.601Z,1.50
2017-06-11T17:24:28.145Z,1.60
2017-06-11T17:26:55.666Z,1.77
2017-06-11T17:29:23.203Z,1.57
2017-06-11T17:31:50.727Z,1.70
2017-06-11T17:34:18.274Z,1.90
2017-06-11T17:36:45.800Z,1.60
2017-06-11T17:39:14.107Z,1.87
2017-06-11T17:41:41.636Z,2.00
2017-06-11T17:44:09.953Z,2.10
2017-06-11T17:46:37.474Z,1.83
2017-06-11T17:49:05.027Z,2.33
2017-06-11T17:51:32.550Z,1.80
2017-06-11T17:54:00.838Z,1.50
2017-06-11T17:56:28.383Z,1.80
2017-06-11T17:58:56.666Z,2.10
2017-06-11T18:01:24.212Z,2.10
2017-06-11T18:03:51.735Z,2.53
2017-06-11T18:06:19.276Z,2.43
2017-06-11T18:08:46.797Z,1.93
2017-06-11T18:11:14.342Z,2.53
2017-06-11T18:13:41.866Z,2.70
2017-06-11T18:16:09.394Z,2.27
2017-06-11T18:18:36.934Z,3.20
2017-06-11T18:21:04.450Z,2.40
2017-06-11T18:23:31.992Z,2.57
2017-06-11T18:25:59.518Z,2.60
2017-06-11T18:28:27.059Z,2.40
2017-06-11T18:30:54.591Z,2.40
2017-06-11T18:33:22.146Z,1.87
2017-06-11T18:35:49.666Z,2.53
2017-06-11T18:38:17.186Z,2.53
2017-06-11T18:40:44.738Z,2.43
2017-06-11T18:43:12.262Z,2.43
2017-06-11T18:45:39.820Z,2.30
2017-06-11T18:48:07.348Z,2.10
2017-06-11T18:50:35.655Z,1.97
2017-06-11T18:53:03.182Z,1.70
2017-06-11T18:55:30.744Z,1.83
2017-06-11T18:57:58.266Z,1.97
2017-06-11T19:00:26.546Z,2.10
2017-06-11T19:02:54.863Z,2.23
2017-06-11T19:05:22.388Z,2.47
2017-06-11T19:07:51.505Z,3.10
2017-06-11T19:10:19.028Z,3.00
2017-06-11T19:12:46.570Z,5.60
2017-06-11T19:15:14.097Z,3.43
2017-06-11T19:17:42.420Z,3.10
2017-06-11T19:20:09.963Z,3.70
2017-06-11T19:22:37.908Z,2.23
2017-06-11T19:25:05.455Z,2.30
2017-06-11T19:27:33.015Z,2.40
2017-06-11T19:30:00.955Z,1.90
2017-06-11T19:32:29.259Z,2.10
2017-06-11T19:34:56.804Z,2.23
2017-06-11T19:37:25.083Z,2.30
2017-06-11T19:39:52.645Z,2.57
2017-06-11T19:42:20.171Z,2.47
2017-06-11T19:44:47.702Z,2.77
2017-06-11T19:47:15.246Z,2.20
2017-06-11T19:49:43.532Z,2.67
2017-06-11T19:52:11.080Z,2.90
2017-06-11T19:54:39.375Z,3.23
2017-06-11T19:57:07.691Z,2.30
2017-06-11T19:59:35.214Z,2.50
2017-06-11T20:02:03.533Z,2.00
2017-06-11T20:04:31.065Z,2.40
2017-06-11T20:06:58.587Z,2.43
2017-06-11T20:09:26.128Z,2.73
2017-06-11T20:11:53.656Z,2.03
2017-06-11T20:14:21.200Z,2.20
2017-06-11T20:16:48.714Z,2.33
2017-06-11T20:19:16.266Z,2.63
2017-06-11T20:21:43.791Z,2.63
2017-06-11T20:24:11.348Z,2.70
2017-06-11T20:26:38.873Z,2.70
2017-06-11T20:29:06.390Z,3.07
2017-06-11T20:31:33.931Z,2.80
2017-06-11T20:34:01.451Z,2.53
2017-06-11T20:36:28.987Z,2.53
2017-06-11T20:38:56.510Z,2.73
2017-06-11T20:41:24.052Z,2.00
2017-06-11T20:43:51.574Z,2.10
2017-06-11T20:46:19.132Z,3.30
2017-06-11T20:48:47.414Z,2.70
2017-06-11T20:51:14.945Z,2.40
2017-06-11T20:53:42.483Z,2.97
2017-06-11T20:56:10.001Z,2.43
2017-06-11T20:58:38.310Z,2.10
2017-06-11T21:01:05.830Z,1.73
2017-06-11T21:03:33.375Z,2.20
2017-06-11T21:06:01.659Z,2.50
2017-06-11T21:08:29.967Z,2.27
2017-06-11T21:10:57.490Z,2.20
2017-06-11T21:13:25.010Z,2.90
2017-06-11T21:15:52.558Z,2.53
2017-06-11T21:18:20.079Z,3.00
2017-06-11T21:20:47.624Z,2.27
2017-06-11T21:23:15.910Z,2.63
2017-06-11T21:25:43.474Z,2.50
2017-06-11T21:28:11.002Z,2.60
2017-06-11T21:30:39.322Z,2.67
2017-06-11T21:33:06.845Z,3.20
2017-06-11T21:35:35.130Z,2.87
2017-06-11T21:38:02.668Z,2.20
2017-06-11T21:40:30.954Z,2.20
2017-06-11T21:42:59.269Z,2.50
2017-06-11T21:45:26.798Z,3.03
2017-06-11T21:47:55.115Z,2.53
2017-06-11T21:50:22.648Z,2.60
2017-06-11T21:52:50.190Z,2.27
2017-06-11T21:55:18.481Z,1.70
2017-06-11T21:57:46.023Z,2.10
2017-06-11T22:00:13.551Z,2.87
2017-06-11T22:02:41.077Z,2.40
2017-06-11T22:05:08.628Z,3.00
2017-06-11T22:07:36.914Z,2.77
2017-06-11T22:10:04.459Z,2.43
2017-06-11T22:12:31.985Z,3.00
2017-06-11T22:15:00.290Z,2.97
2017-06-11T22:17:27.815Z,3.20
2017-06-11T22:19:55.359Z,3.53
2017-06-11T22:22:22.884Z,3.67
2017-06-11T22:24:50.444Z,3.10
2017-06-11T22:27:17.965Z,2.63
2017-06-11T22:29:46.254Z,3.00
2017-06-11T22:32:13.799Z,2.50
2017-06-11T22:34:42.093Z,2.63
2017-06-11T22:37:09.635Z,2.37
2017-06-11T22:39:37.927Z,2.30
2017-06-11T22:42:05.473Z,2.77
2017-06-11T22:44:33.009Z,2.63
2017-06-11T22:47:01.324Z,3.37
2017-06-11T22:49:28.854Z,2.50
2017-06-11T22:51:56.382Z,2.60
2017-06-11T22:54:23.929Z,3.30
2017-06-11T22:56:51.452Z,3.67
2017-06-11T22:59:18.994Z,3.37
2017-06-11T23:01:47.287Z,2.90
2017-06-11T23:04:14.837Z,2.80
2017-06-11T23:06:43.123Z,3.20
2017-06-11T23:09:10.672Z,2.80
2017-06-11T23:11:38.191Z,3.40
2017-06-11T23:14:06.478Z,2.60
2017-06-11T23:16:34.782Z,2.60
2017-06-11T23:19:02.302Z,2.50
2017-06-11T23:21:30.615Z,2.70
2017-06-11T23:23:58.140Z,2.70
2017-06-11T23:26:25.675Z,2.60
2017-06-11T23:28:53.963Z,2.60
2017-06-11T23:31:21.498Z,2.50
2017-06-11T23:33:49.023Z,2.60
2017-06-11T23:36:16.583Z,3.20
2017-06-11T23:38:44.102Z,2.90
2017-06-11T23:41:11.624Z,3.13
2017-06-11T23:43:39.932Z,4.07
2017-06-11T23:46:07.455Z,3.37
2017-06-11T23:48:34.991Z,3.70
2017-06-11T23:51:03.284Z,3.10
2017-06-11T23:53:30.827Z,3.03
2017-06-11T23:55:59.114Z,2.90
2017-06-11T23:58:27.438Z,2.60
